createdAt,value
2023-01-29T00:01:31.643Z,10.43
2023-01-29T00:03:59.243Z,7.57
2023-01-29T00:06:26.673Z,7.22
2023-01-29T00:08:55.657Z,8.70
2023-01-29T00:11:25.781Z,7.70
2023-01-29T00:13:53.723Z,9.70
2023-01-29T00:16:21.247Z,9.60
2023-01-29T00:18:48.601Z,9.45
2023-01-29T00:21:18.468Z,9.23
2023-01-29T00:23:46.325Z,7.43
2023-01-29T00:26:15.519Z,8.60
2023-01-29T00:28:42.941Z,6.55
2023-01-29T00:31:11.733Z,9.70
2023-01-29T00:33:39.582Z,9.93
2023-01-29T00:36:09.091Z,10.00
2023-01-29T00:38:37.055Z,10.23
2023-01-29T00:41:26.092Z,8.30
2023-01-29T00:44:13.314Z,8.43
2023-01-29T00:46:40.688Z,9.00
2023-01-29T00:49:08.418Z,6.38
2023-01-29T00:51:37.459Z,6.97
2023-01-29T00:54:07.013Z,6.28
2023-01-29T00:56:36.029Z,8.45
2023-01-29T00:59:05.106Z,7.33
2023-01-29T01:01:51.228Z,8.75
2023-01-29T01:04:18.633Z,8.85
2023-01-29T01:06:45.880Z,8.45
2023-01-29T01:09:31.783Z,6.05
2023-01-29T01:11:59.223Z,8.03
2023-01-29T01:14:27.924Z,6.38
2023-01-29T01:16:55.518Z,7.45
2023-01-29T01:19:23.054Z,6.40
2023-01-29T01:21:50.457Z,9.05
2023-01-29T01:24:17.870Z,8.13
2023-01-29T01:26:45.219Z,5.97
2023-01-29T01:29:13.164Z,8.30
2023-01-29T01:31:41.973Z,6.63
2023-01-29T01:34:09.448Z,6.65
2023-01-29T01:36:36.927Z,7.60
2023-01-29T01:39:04.579Z,6.40
2023-01-29T01:41:32.061Z,6.25
2023-01-29T01:44:01.817Z,4.18
2023-01-29T01:46:30.107Z,6.90
2023-01-29T01:49:05.147Z,5.80
2023-01-29T01:51:35.297Z,5.55
2023-01-29T01:54:07.466Z,7.07
2023-01-29T01:56:40.847Z,5.60
2023-01-29T01:59:11.159Z,6.40
2023-01-29T02:01:43.156Z,5.60
2023-01-29T02:04:33.451Z,4.78
2023-01-29T02:07:21.993Z,4.68
2023-01-29T02:09:53.330Z,5.07
2023-01-29T02:12:21.921Z,2.42
2023-01-29T02:14:49.296Z,3.40
2023-01-29T02:17:18.835Z,3.58
2023-01-29T02:19:56.084Z,3.38
2023-01-29T02:22:59.331Z,3.80
2023-01-29T02:25:53.033Z,3.22
2023-01-29T02:28:32.418Z,2.13
2023-01-29T02:31:07.167Z,4.43
2023-01-29T02:33:47.590Z,3.70
2023-01-29T02:36:22.996Z,2.55
2023-01-29T02:39:00.221Z,4.30
2023-01-29T02:41:32.365Z,4.10
2023-01-29T02:44:07.137Z,2.70
2023-01-29T02:46:39.846Z,3.28
2023-01-29T02:49:12.874Z,2.95
2023-01-29T02:51:45.365Z,2.72
2023-01-29T02:54:19.636Z,3.42
2023-01-29T02:56:51.998Z,3.70
2023-01-29T02:59:23.997Z,2.67
2023-01-29T03:01:56.514Z,2.25
2023-01-29T03:04:28.550Z,3.38
2023-01-29T03:07:00.101Z,4.13
2023-01-29T03:09:31.599Z,2.42
2023-01-29T03:12:19.871Z,2.70
2023-01-29T03:15:09.990Z,3.00
2023-01-29T03:17:42.015Z,2.70
2023-01-29T03:20:15.310Z,2.73
2023-01-29T03:22:46.802Z,3.30
2023-01-29T03:25:34.179Z,2.78
2023-01-29T03:28:23.004Z,2.95
2023-01-29T03:31:13.902Z,3.05
2023-01-29T03:33:46.258Z,2.97
2023-01-29T03:36:20.091Z,1.67
2023-01-29T03:38:47.449Z,2.20
2023-01-29T03:41:23.368Z,2.78
2023-01-29T03:43:56.673Z,2.47
2023-01-29T03:46:29.894Z,3.00
2023-01-29T03:49:02.976Z,3.08
2023-01-29T03:51:35.372Z,1.80
2023-01-29T03:54:09.645Z,2.17
2023-01-29T03:56:56.263Z,2.75
2023-01-29T03:59:33.969Z,2.30
2023-01-29T04:02:07.346Z,2.10
2023-01-29T04:04:37.229Z,2.63
2023-01-29T04:07:08.985Z,2.80
2023-01-29T04:09:42.390Z,2.03
2023-01-29T04:12:12.053Z,2.30
2023-01-29T04:14:39.979Z,2.60
2023-01-29T04:17:15.378Z,2.25
2023-01-29T04:19:44.603Z,1.42
2023-01-29T04:22:17.365Z,2.65
2023-01-29T04:24:44.906Z,1.63
2023-01-29T04:27:25.447Z,1.90
2023-01-29T04:30:07.184Z,2.03
2023-01-29T04:32:48.898Z,1.70
2023-01-29T04:35:27.083Z,2.53
2023-01-29T04:38:06.626Z,1.73
2023-01-29T04:40:44.396Z,2.30
2023-01-29T04:43:18.587Z,2.30
2023-01-29T04:46:06.207Z,2.33
2023-01-29T04:48:46.783Z,2.45
2023-01-29T04:51:22.722Z,2.00
2023-01-29T04:53:55.175Z,2.40
2023-01-29T04:56:29.837Z,1.95
2023-01-29T04:59:02.358Z,1.65
2023-01-29T05:01:33.492Z,1.60
2023-01-29T05:04:04.791Z,2.20
2023-01-29T05:06:32.929Z,2.05
2023-01-29T05:09:01.766Z,1.70
2023-01-29T05:11:31.819Z,2.50
2023-01-29T05:13:59.810Z,2.15
2023-01-29T05:16:29.907Z,2.27
2023-01-29T05:18:57.241Z,1.95
2023-01-29T05:21:27.897Z,2.50
2023-01-29T05:24:09.976Z,1.90
2023-01-29T05:26:56.325Z,2.38
2023-01-29T05:29:24.129Z,2.25
2023-01-29T05:31:51.648Z,2.47
2023-01-29T05:34:19.014Z,2.22
2023-01-29T05:36:47.840Z,2.80
2023-01-29T05:39:15.475Z,2.10
2023-01-29T05:41:43.035Z,2.00
2023-01-29T05:44:10.799Z,1.55
2023-01-29T05:46:38.436Z,1.55
2023-01-29T05:49:06.349Z,1.90
2023-01-29T05:51:33.852Z,1.92
2023-01-29T05:54:03.076Z,1.83
2023-01-29T05:56:30.318Z,1.67
2023-01-29T05:58:57.612Z,2.58
2023-01-29T06:01:26.493Z,2.20
2023-01-29T06:03:54.933Z,2.00
2023-01-29T06:06:22.163Z,1.80
2023-01-29T06:08:49.959Z,1.02
2023-01-29T06:11:18.764Z,1.90
2023-01-29T06:13:46.147Z,2.55
2023-01-29T06:16:14.277Z,2.30
2023-01-29T06:18:42.527Z,2.50
2023-01-29T06:21:12.107Z,2.60
2023-01-29T06:23:39.903Z,2.08
2023-01-29T06:26:08.980Z,1.90
2023-01-29T06:28:37.850Z,1.85
2023-01-29T06:31:37.365Z,2.47
2023-01-29T06:33:54.321Z,1.70
2023-01-29T06:36:21.771Z,2.53
2023-01-29T06:38:49.111Z,2.80
2023-01-29T06:41:18.207Z,1.75
2023-01-29T06:43:47.882Z,2.00
2023-01-29T06:46:15.118Z,2.53
2023-01-29T06:48:42.441Z,2.83
2023-01-29T06:51:11.213Z,3.40
2023-01-29T06:53:39.412Z,3.28
2023-01-29T06:56:08.075Z,2.67
2023-01-29T06:58:37.419Z,2.15
2023-01-29T07:01:09.257Z,3.92
2023-01-29T07:03:37.432Z,3.47
2023-01-29T07:06:06.189Z,3.83
2023-01-29T07:08:36.441Z,3.47
2023-01-29T07:11:04.328Z,2.90
2023-01-29T07:13:31.583Z,3.85
2023-01-29T07:15:59.892Z,4.28
2023-01-29T07:18:29.513Z,3.63
2023-01-29T07:20:57.641Z,4.30
2023-01-29T07:23:25.958Z,4.93
2023-01-29T07:25:53.356Z,4.05
2023-01-29T07:28:20.943Z,4.50
2023-01-29T07:30:48.507Z,5.85
2023-01-29T07:33:16.313Z,5.63
2023-01-29T07:35:45.093Z,4.90
2023-01-29T07:38:12.760Z,5.38
2023-01-29T07:40:40.029Z,4.68
2023-01-29T07:43:09.443Z,4.78
2023-01-29T07:45:38.253Z,5.35
2023-01-29T07:48:06.579Z,4.20
2023-01-29T07:50:35.381Z,4.40
2023-01-29T07:53:04.736Z,4.25
2023-01-29T07:55:33.340Z,6.55
2023-01-29T07:58:02.989Z,4.47
2023-01-29T08:00:31.729Z,4.03
2023-01-29T08:03:03.710Z,4.90
2023-01-29T08:05:31.071Z,4.03
2023-01-29T08:08:06.627Z,3.83
2023-01-29T08:10:36.427Z,3.93
2023-01-29T08:13:05.717Z,3.65
2023-01-29T08:15:33.430Z,3.03
2023-01-29T08:18:02.382Z,2.58
2023-01-29T08:20:30.018Z,4.38
2023-01-29T08:23:01.969Z,3.67
2023-01-29T08:25:29.978Z,3.47
2023-01-29T08:27:59.790Z,3.42
2023-01-29T08:30:28.490Z,3.40
2023-01-29T08:32:56.220Z,3.88
2023-01-29T08:35:24.231Z,4.10
2023-01-29T08:37:55.325Z,3.65
2023-01-29T08:40:22.916Z,4.75
2023-01-29T08:42:50.240Z,4.07
2023-01-29T08:45:19.180Z,4.22
2023-01-29T08:47:47.555Z,2.90
2023-01-29T08:50:15.553Z,3.95
2023-01-29T08:52:43.374Z,6.38
2023-01-29T08:55:11.410Z,4.05
2023-01-29T08:57:38.952Z,5.80
2023-01-29T09:00:09.534Z,4.73
2023-01-29T09:02:38.527Z,2.45
2023-01-29T09:05:10.402Z,4.25
2023-01-29T09:07:37.808Z,3.88
2023-01-29T09:10:06.270Z,4.57
2023-01-29T09:12:34.008Z,5.53
2023-01-29T09:15:01.221Z,5.53
2023-01-29T09:17:28.511Z,6.55
2023-01-29T09:19:57.234Z,5.07
2023-01-29T09:22:24.436Z,2.40
2023-01-29T09:24:52.146Z,3.77
2023-01-29T09:27:19.668Z,3.38
2023-01-29T09:29:46.994Z,3.97
2023-01-29T09:32:15.604Z,4.25
2023-01-29T09:34:44.061Z,5.57
2023-01-29T09:37:12.768Z,4.70
2023-01-29T09:39:40.453Z,4.88
2023-01-29T09:42:13.552Z,3.15
2023-01-29T09:44:55.188Z,5.75
2023-01-29T09:47:25.214Z,3.47
2023-01-29T09:49:58.200Z,3.37
2023-01-29T09:52:30.346Z,4.10
2023-01-29T09:55:03.466Z,4.05
2023-01-29T09:57:38.930Z,4.45
2023-01-29T10:00:15.764Z,4.45
2023-01-29T10:02:56.258Z,4.55
2023-01-29T10:05:32.655Z,3.08
2023-01-29T10:08:32.598Z,2.10
2023-01-29T10:11:14.861Z,4.70
2023-01-29T10:13:52.356Z,2.63
2023-01-29T10:16:33.880Z,3.13
2023-01-29T10:19:23.038Z,3.10
2023-01-29T10:22:05.380Z,2.38
2023-01-29T10:24:38.434Z,2.75
2023-01-29T10:27:15.101Z,2.75
2023-01-29T10:29:45.222Z,3.73
2023-01-29T10:32:16.667Z,3.90
2023-01-29T10:34:49.023Z,2.90
2023-01-29T10:37:18.755Z,3.65
2023-01-29T10:39:46.401Z,2.83
2023-01-29T10:42:23.502Z,3.43
2023-01-29T10:45:16.767Z,3.53
2023-01-29T10:48:12.280Z,3.15
2023-01-29T10:50:46.796Z,3.55
2023-01-29T10:53:29.818Z,2.25
2023-01-29T10:56:20.947Z,3.53
2023-01-29T10:58:55.287Z,4.53
2023-01-29T11:01:23.343Z,2.90
2023-01-29T11:03:58.775Z,2.70
2023-01-29T11:06:30.480Z,2.80
2023-01-29T11:09:06.237Z,3.45
2023-01-29T11:11:39.668Z,4.07
2023-01-29T11:14:14.100Z,3.83
2023-01-29T11:16:43.085Z,3.45
2023-01-29T11:19:11.110Z,4.70
2023-01-29T11:21:53.717Z,2.47
2023-01-29T11:24:21.014Z,3.00
2023-01-29T11:26:50.066Z,3.63
2023-01-29T11:29:39.405Z,4.00
2023-01-29T11:32:11.007Z,2.40
2023-01-29T11:34:57.459Z,2.87
2023-01-29T11:37:33.513Z,3.53
2023-01-29T11:40:00.936Z,3.80
2023-01-29T11:42:31.924Z,4.15
2023-01-29T11:45:00.882Z,1.98
2023-01-29T11:47:30.564Z,4.00
2023-01-29T11:50:00.985Z,2.55
2023-01-29T11:52:36.550Z,4.75
2023-01-29T11:55:07.462Z,4.13
2023-01-29T11:57:37.136Z,6.95
2023-01-29T12:00:18.060Z,3.30
2023-01-29T12:02:47.486Z,4.20
2023-01-29T12:05:16.590Z,3.28
2023-01-29T12:07:46.375Z,5.65
2023-01-29T12:10:33.262Z,6.30
2023-01-29T12:13:21.865Z,4.72
2023-01-29T12:16:04.695Z,4.38
2023-01-29T12:18:37.731Z,4.05
2023-01-29T12:21:10.713Z,4.80
2023-01-29T12:23:47.412Z,5.20
2023-01-29T12:26:18.196Z,5.73
2023-01-29T12:28:55.159Z,4.20
2023-01-29T12:31:29.444Z,4.95
2023-01-29T12:34:04.978Z,7.25
2023-01-29T12:36:38.352Z,4.30
2023-01-29T12:39:05.887Z,3.20
2023-01-29T12:41:41.094Z,5.07
2023-01-29T12:44:14.623Z,4.93
2023-01-29T12:46:49.046Z,4.90
2023-01-29T12:49:24.519Z,5.05
2023-01-29T12:51:57.188Z,5.25
2023-01-29T12:54:32.316Z,4.07
2023-01-29T12:57:04.422Z,4.60
2023-01-29T12:59:36.804Z,8.10
2023-01-29T13:02:19.138Z,4.75
2023-01-29T13:04:54.081Z,3.43
2023-01-29T13:07:27.521Z,3.47
2023-01-29T13:10:00.153Z,3.60
2023-01-29T13:12:28.675Z,4.28
2023-01-29T13:14:59.156Z,3.55
2023-01-29T13:17:34.750Z,3.88
2023-01-29T13:20:09.717Z,2.28
2023-01-29T13:22:40.126Z,5.00
2023-01-29T13:25:15.839Z,4.38
2023-01-29T13:27:45.958Z,8.05
2023-01-29T13:30:25.746Z,3.75
2023-01-29T13:33:09.419Z,2.72
2023-01-29T13:35:40.731Z,4.00
2023-01-29T13:38:24.675Z,5.07
2023-01-29T13:40:52.686Z,5.43
2023-01-29T13:43:21.792Z,4.77
2023-01-29T13:45:51.619Z,4.00
2023-01-29T13:48:26.861Z,6.38
2023-01-29T13:50:56.575Z,3.55
2023-01-29T13:53:26.812Z,3.85
2023-01-29T13:55:54.323Z,5.80
2023-01-29T13:58:55.384Z,4.32
2023-01-29T14:01:55.894Z,5.53
2023-01-29T14:04:26.975Z,6.18
2023-01-29T14:06:55.581Z,2.97
2023-01-29T14:10:05.118Z,4.97
2023-01-29T14:12:53.310Z,5.05
2023-01-29T14:15:29.351Z,4.18
2023-01-29T14:18:05.758Z,4.20
2023-01-29T14:20:45.910Z,5.03
2023-01-29T14:23:33.510Z,5.30
2023-01-29T14:26:03.051Z,8.05
2023-01-29T14:28:32.393Z,9.75
2023-01-29T14:31:00.381Z,10.15
2023-01-29T14:33:34.179Z,4.97
2023-01-29T14:36:09.463Z,8.53
2023-01-29T14:38:37.892Z,5.72
2023-01-29T14:41:15.325Z,6.10
2023-01-29T14:43:43.193Z,6.45
2023-01-29T14:46:42.831Z,8.95
2023-01-29T14:49:10.480Z,8.15
2023-01-29T14:51:44.205Z,8.20
2023-01-29T14:54:25.537Z,8.15
2023-01-29T14:57:02.670Z,6.72
2023-01-29T14:59:35.239Z,4.15
2023-01-29T15:02:12.687Z,5.73
2023-01-29T15:04:44.577Z,9.68
2023-01-29T15:07:25.695Z,8.32
2023-01-29T15:10:18.950Z,9.57
2023-01-29T15:12:53.189Z,7.03
2023-01-29T15:15:27.421Z,7.93
2023-01-29T15:18:02.397Z,5.88
2023-01-29T15:20:32.788Z,8.93
2023-01-29T15:23:05.133Z,8.68
2023-01-29T15:25:37.248Z,17.08
2023-01-29T15:28:10.280Z,10.75
2023-01-29T15:30:38.248Z,9.77
2023-01-29T15:33:10.550Z,10.32
2023-01-29T15:35:39.820Z,9.30
2023-01-29T15:38:16.706Z,9.57
2023-01-29T15:40:52.577Z,8.60
2023-01-29T15:43:22.266Z,8.35
2023-01-29T15:45:50.638Z,9.40
2023-01-29T15:48:20.969Z,7.78
2023-01-29T15:50:54.111Z,9.35
2023-01-29T15:53:29.720Z,10.57
2023-01-29T15:56:00.311Z,11.07
2023-01-29T15:58:30.708Z,15.55
2023-01-29T16:01:00.590Z,16.05
2023-01-29T16:03:32.485Z,17.35
2023-01-29T16:06:00.596Z,20.65
2023-01-29T16:08:29.757Z,19.98
2023-01-29T16:10:59.941Z,21.73
2023-01-29T16:13:30.106Z,28.65
2023-01-29T16:15:59.569Z,22.70
2023-01-29T16:18:31.613Z,14.60
2023-01-29T16:21:01.664Z,20.08
2023-01-29T16:23:35.420Z,22.10
2023-01-29T16:26:07.367Z,16.80
2023-01-29T16:28:39.599Z,19.77
2023-01-29T16:31:07.241Z,57.80
2023-01-29T16:33:37.468Z,18.85
2023-01-29T16:36:12.106Z,7.60
2023-01-29T16:38:44.406Z,7.78
2023-01-29T16:41:27.800Z,10.18
2023-01-29T16:43:57.088Z,16.57
2023-01-29T16:46:27.058Z,16.83
2023-01-29T16:48:55.133Z,20.70
2023-01-29T16:51:28.519Z,17.42
2023-01-29T16:54:00.092Z,15.23
2023-01-29T16:56:29.989Z,17.73
2023-01-29T16:59:00.392Z,15.20
2023-01-29T17:01:34.737Z,19.55
2023-01-29T17:04:10.078Z,20.88
2023-01-29T17:06:39.172Z,20.73
2023-01-29T17:09:08.778Z,15.83
2023-01-29T17:11:38.899Z,14.60
2023-01-29T17:14:08.385Z,12.40
2023-01-29T17:16:46.709Z,14.00
2023-01-29T17:19:18.572Z,11.07
2023-01-29T17:21:46.687Z,11.15
2023-01-29T17:24:16.910Z,13.48
2023-01-29T17:26:45.646Z,13.93
2023-01-29T17:29:16.005Z,16.85
2023-01-29T17:31:44.463Z,14.77
2023-01-29T17:34:14.895Z,10.70
2023-01-29T17:36:42.345Z,11.65
2023-01-29T17:39:19.366Z,12.50
2023-01-29T17:41:49.988Z,14.98
2023-01-29T17:44:17.921Z,13.73
2023-01-29T17:46:46.506Z,11.88
2023-01-29T17:49:23.085Z,12.38
2023-01-29T17:51:51.103Z,13.82
2023-01-29T17:54:20.672Z,12.82
2023-01-29T17:56:48.702Z,12.82
2023-01-29T17:59:18.091Z,10.75
2023-01-29T18:01:46.624Z,9.68
2023-01-29T18:04:14.704Z,10.88
2023-01-29T18:06:43.564Z,11.20
2023-01-29T18:09:13.573Z,11.48
2023-01-29T18:11:42.943Z,16.15
2023-01-29T18:14:14.268Z,14.93
2023-01-29T18:16:43.729Z,17.25
2023-01-29T18:19:19.400Z,18.80
2023-01-29T18:21:47.029Z,22.73
2023-01-29T18:24:14.571Z,17.10
2023-01-29T18:26:43.556Z,28.30
2023-01-29T18:29:11.208Z,23.75
2023-01-29T18:31:39.248Z,31.30
2023-01-29T18:34:06.970Z,31.98
2023-01-29T18:36:34.588Z,29.80
2023-01-29T18:39:02.122Z,19.10
2023-01-29T18:41:29.563Z,21.63
2023-01-29T18:43:58.467Z,21.42
2023-01-29T18:46:26.033Z,25.08
2023-01-29T18:48:55.238Z,24.23
2023-01-29T18:51:22.816Z,21.27
2023-01-29T18:53:51.283Z,14.88
2023-01-29T18:56:19.437Z,16.08
2023-01-29T18:58:51.911Z,19.52
2023-01-29T19:01:22.263Z,15.48
2023-01-29T19:03:50.100Z,21.42
2023-01-29T19:06:17.652Z,20.15
2023-01-29T19:08:44.985Z,19.95
2023-01-29T19:11:12.976Z,24.65
2023-01-29T19:13:45.197Z,21.33
2023-01-29T19:16:13.663Z,18.83
2023-01-29T19:18:44.076Z,18.38
2023-01-29T19:21:14.039Z,16.98
2023-01-29T19:23:42.796Z,15.55
2023-01-29T19:26:10.535Z,16.75
2023-01-29T19:28:38.216Z,17.77
2023-01-29T19:31:06.065Z,17.90
2023-01-29T19:33:33.989Z,16.80
2023-01-29T19:36:03.320Z,16.75
2023-01-29T19:38:33.614Z,18.15
2023-01-29T19:41:01.274Z,18.98
2023-01-29T19:43:30.644Z,15.35
2023-01-29T19:45:59.092Z,12.57
2023-01-29T19:48:27.270Z,14.88
2023-01-29T19:50:56.323Z,17.05
2023-01-29T19:53:27.377Z,16.35
2023-01-29T19:55:59.005Z,24.17
2023-01-29T19:58:26.671Z,20.05
2023-01-29T20:00:55.842Z,21.35
2023-01-29T20:03:23.781Z,18.10
2023-01-29T20:05:51.807Z,16.88
2023-01-29T20:08:19.526Z,16.85
2023-01-29T20:10:49.068Z,14.93
2023-01-29T20:13:16.533Z,19.63
2023-01-29T20:15:45.866Z,33.72
2023-01-29T20:18:14.360Z,22.73
2023-01-29T20:20:43.161Z,31.67
2023-01-29T20:23:11.271Z,30.20
2023-01-29T20:25:38.759Z,53.78
2023-01-29T20:28:11.703Z,32.27
2023-01-29T20:30:40.374Z,24.17
2023-01-29T20:33:08.258Z,26.35
2023-01-29T20:35:37.199Z,24.20
2023-01-29T20:38:05.869Z,20.33
2023-01-29T20:40:33.773Z,19.65
2023-01-29T20:43:01.271Z,16.63
2023-01-29T20:45:33.121Z,17.38
2023-01-29T20:48:00.785Z,16.92
2023-01-29T20:50:28.580Z,17.25
2023-01-29T20:52:56.258Z,17.85
2023-01-29T20:55:23.902Z,19.02
2023-01-29T20:58:05.682Z,19.77
2023-01-29T21:00:35.624Z,25.50
2023-01-29T21:03:03.207Z,22.60
2023-01-29T21:05:30.705Z,24.67
2023-01-29T21:07:58.101Z,23.98
2023-01-29T21:10:25.733Z,25.00
2023-01-29T21:12:54.815Z,24.63
2023-01-29T21:15:23.892Z,25.02
2023-01-29T21:17:53.298Z,24.67
2023-01-29T21:20:21.118Z,28.08
2023-01-29T21:22:49.392Z,26.48
2023-01-29T21:25:20.513Z,26.02
2023-01-29T21:27:48.157Z,19.60
2023-01-29T21:30:16.729Z,22.23
2023-01-29T21:32:44.276Z,25.35
2023-01-29T21:35:13.155Z,27.13
2023-01-29T21:37:40.905Z,24.88
2023-01-29T21:40:09.923Z,23.42
2023-01-29T21:42:56.128Z,18.55
2023-01-29T21:45:23.398Z,15.80
2023-01-29T21:47:51.159Z,14.48
2023-01-29T21:50:20.682Z,12.50
2023-01-29T21:52:48.244Z,13.00
2023-01-29T21:55:16.090Z,15.43
2023-01-29T21:57:43.555Z,16.65
2023-01-29T22:00:12.597Z,21.58
2023-01-29T22:02:40.386Z,23.25
2023-01-29T22:05:18.811Z,24.70
2023-01-29T22:07:49.336Z,22.25
2023-01-29T22:10:18.596Z,21.73
2023-01-29T22:12:47.034Z,20.58
2023-01-29T22:15:14.992Z,22.27
2023-01-29T22:17:42.493Z,20.92
2023-01-29T22:20:11.641Z,21.30
2023-01-29T22:22:38.945Z,19.83
2023-01-29T22:25:08.987Z,22.65
2023-01-29T22:27:36.790Z,23.17
2023-01-29T22:30:04.967Z,25.08
2023-01-29T22:32:32.888Z,21.20
2023-01-29T22:35:00.206Z,21.83
2023-01-29T22:37:27.861Z,23.52
2023-01-29T22:39:55.239Z,25.85
2023-01-29T22:42:23.925Z,21.48
2023-01-29T22:44:51.230Z,21.17
2023-01-29T22:47:18.685Z,21.33
2023-01-29T22:49:49.204Z,21.38
2023-01-29T22:52:16.482Z,19.73
2023-01-29T22:54:44.682Z,19.90
2023-01-29T22:57:14.200Z,19.57
2023-01-29T22:59:43.102Z,23.58
2023-01-29T23:02:10.602Z,23.40
2023-01-29T23:04:37.959Z,24.20
2023-01-29T23:07:05.514Z,24.05
2023-01-29T23:09:32.777Z,24.27
2023-01-29T23:12:01.374Z,22.67
2023-01-29T23:14:28.601Z,23.20
2023-01-29T23:16:57.441Z,24.77
2023-01-29T23:19:25.043Z,23.15
2023-01-29T23:21:52.630Z,21.67
2023-01-29T23:24:20.098Z,21.15
2023-01-29T23:27:06.271Z,20.65
2023-01-29T23:29:33.597Z,18.25
2023-01-29T23:32:03.968Z,17.23
2023-01-29T23:34:31.286Z,19.20
2023-01-29T23:36:58.816Z,18.48
2023-01-29T23:39:26.109Z,20.52
2023-01-29T23:41:53.319Z,19.65
2023-01-29T23:44:20.941Z,16.52
2023-01-29T23:46:48.395Z,15.03
2023-01-29T23:49:17.196Z,14.38
2023-01-29T23:51:45.862Z,13.75
2023-01-29T23:54:14.107Z,13.13
2023-01-29T23:56:41.336Z,13.77
2023-01-29T23:59:08.969Z,13.63
